createdAt,value
2023-02-11T00:02:20.852Z,69.90
2023-02-11T00:04:49.692Z,73.93
2023-02-11T00:07:18.544Z,85.53
2023-02-11T00:09:47.538Z,55.87
2023-02-11T00:12:16.290Z,53.20
2023-02-11T00:14:45.050Z,69.50
2023-02-11T00:17:15.535Z,70.70
2023-02-11T00:19:44.438Z,84.40
2023-02-11T00:22:13.277Z,85.67
2023-02-11T00:24:42.151Z,84.77
2023-02-11T00:27:11.078Z,92.00
2023-02-11T00:29:40.364Z,81.83
2023-02-11T00:32:12.619Z,47.88
2023-02-11T00:34:42.964Z,45.63
2023-02-11T00:37:12.392Z,37.37
2023-02-11T00:39:43.850Z,36.70
2023-02-11T00:42:16.293Z,30.03
2023-02-11T00:44:47.249Z,25.27
2023-02-11T00:47:19.143Z,25.23
2023-02-11T00:49:49.653Z,25.40
2023-02-11T00:52:18.646Z,33.07
2023-02-11T00:54:47.593Z,37.33
2023-02-11T00:57:16.916Z,44.63
2023-02-11T00:59:45.810Z,39.23
2023-02-11T01:02:14.645Z,39.47
2023-02-11T01:04:45.224Z,37.03
2023-02-11T01:07:15.563Z,31.00
2023-02-11T01:09:44.667Z,29.00
2023-02-11T01:12:13.518Z,27.60
2023-02-11T01:14:43.154Z,34.77
2023-02-11T01:17:12.319Z,26.97
2023-02-11T01:19:43.578Z,30.00
2023-02-11T01:22:12.848Z,29.50
2023-02-11T01:24:43.117Z,27.57
2023-02-11T01:27:11.984Z,26.83
2023-02-11T01:29:40.915Z,24.80
2023-02-11T01:32:09.821Z,38.60
2023-02-11T01:34:38.698Z,22.03
2023-02-11T01:37:07.569Z,22.93
2023-02-11T01:39:36.889Z,29.23
2023-02-11T01:42:08.697Z,35.30
2023-02-11T01:44:40.273Z,37.63
2023-02-11T01:47:09.368Z,38.93
2023-02-11T01:49:42.112Z,36.63
2023-02-11T01:52:14.426Z,36.10
2023-02-11T01:55:03.115Z,40.30
2023-02-11T01:57:36.476Z,43.63
2023-02-11T02:00:14.237Z,60.47
2023-02-11T02:02:51.940Z,45.70
2023-02-11T02:05:26.467Z,438.33
2023-02-11T02:08:02.648Z,306.63
2023-02-11T02:10:32.864Z,76.90
2023-02-11T02:13:03.333Z,53.73
2023-02-11T02:15:35.486Z,74.70
2023-02-11T02:18:24.475Z,50.53
2023-02-11T02:21:46.994Z,68.22
2023-02-11T02:24:56.841Z,57.92
2023-02-11T02:27:41.505Z,54.53
2023-02-11T02:31:06.300Z,57.70
2023-02-11T02:33:55.180Z,47.80
2023-02-11T02:36:29.930Z,43.67
2023-02-11T02:39:04.436Z,44.50
2023-02-11T02:41:36.131Z,41.35
2023-02-11T02:44:05.406Z,42.90
2023-02-11T02:46:35.822Z,43.72
2023-02-11T02:49:12.527Z,41.10
2023-02-11T02:52:04.628Z,46.80
2023-02-11T02:55:08.893Z,46.47
2023-02-11T02:57:49.060Z,46.90
2023-02-11T03:00:31.154Z,64.53
2023-02-11T03:03:17.300Z,50.95
2023-02-11T03:05:54.637Z,47.53
2023-02-11T03:08:47.782Z,47.90
2023-02-11T03:11:20.861Z,46.83
2023-02-11T03:13:52.470Z,40.78
2023-02-11T03:16:26.404Z,37.22
2023-02-11T03:19:01.565Z,40.35
2023-02-11T03:21:34.984Z,38.33
2023-02-11T03:24:07.796Z,33.80
2023-02-11T03:26:41.924Z,32.20
2023-02-11T03:29:18.827Z,30.95
2023-02-11T03:31:56.070Z,30.08
2023-02-11T03:34:31.027Z,29.33
2023-02-11T03:37:07.488Z,28.13
2023-02-11T03:39:41.082Z,28.15
2023-02-11T03:42:12.354Z,24.00
2023-02-11T03:44:46.572Z,21.50
2023-02-11T03:47:18.633Z,25.70
2023-02-11T03:49:51.201Z,23.13
2023-02-11T03:52:23.452Z,20.77
2023-02-11T03:54:57.284Z,20.75
2023-02-11T03:57:26.284Z,20.10
2023-02-11T03:59:57.944Z,19.67
2023-02-11T04:02:30.771Z,17.50
2023-02-11T04:05:00.055Z,18.20
2023-02-11T04:07:30.656Z,16.70
2023-02-11T04:09:59.611Z,18.07
2023-02-11T04:12:28.532Z,18.73
2023-02-11T04:14:57.335Z,18.90
2023-02-11T04:17:26.402Z,20.83
2023-02-11T04:19:55.370Z,19.33
2023-02-11T04:22:24.166Z,19.33
2023-02-11T04:24:54.519Z,19.20
2023-02-11T04:27:23.407Z,21.77
2023-02-11T04:29:52.290Z,19.03
2023-02-11T04:32:21.230Z,18.57
2023-02-11T04:34:50.097Z,18.77
2023-02-11T04:37:19.233Z,19.60
2023-02-11T04:39:48.042Z,19.50
2023-02-11T04:42:18.394Z,19.00
2023-02-11T04:44:47.379Z,20.33
2023-02-11T04:47:16.596Z,20.42
2023-02-11T04:49:45.472Z,21.33
2023-02-11T04:52:14.479Z,21.33
2023-02-11T04:54:43.264Z,21.47
2023-02-11T04:57:12.156Z,20.00
2023-02-11T05:00:00.853Z,20.40
2023-02-11T05:02:29.782Z,19.73
2023-02-11T05:04:58.689Z,20.63
2023-02-11T05:07:27.578Z,22.97
2023-02-11T05:09:56.411Z,21.60
2023-02-11T05:12:25.351Z,22.57
2023-02-11T05:14:54.212Z,25.13
2023-02-11T05:17:24.543Z,23.60
2023-02-11T05:19:53.436Z,22.17
2023-02-11T05:22:22.652Z,20.27
2023-02-11T05:24:51.936Z,24.60
2023-02-11T05:27:20.969Z,21.50
2023-02-11T05:29:49.739Z,21.37
2023-02-11T05:32:18.544Z,21.37
2023-02-11T05:34:48.969Z,19.87
2023-02-11T05:37:18.762Z,19.67
2023-02-11T05:39:47.707Z,21.97
2023-02-11T05:42:16.578Z,22.73
2023-02-11T05:44:45.456Z,23.90
2023-02-11T05:47:14.275Z,21.57
2023-02-11T05:49:43.146Z,26.03
2023-02-11T05:52:13.381Z,24.27
2023-02-11T05:54:42.394Z,24.37
2023-02-11T05:57:11.232Z,22.90
2023-02-11T05:59:40.671Z,24.60
2023-02-11T06:02:09.993Z,30.10
2023-02-11T06:04:39.690Z,66.50
2023-02-11T06:07:08.607Z,51.47
2023-02-11T06:09:39.104Z,75.80
2023-02-11T06:12:08.451Z,36.37
2023-02-11T06:14:37.247Z,32.70
2023-02-11T06:17:06.285Z,26.90
2023-02-11T06:19:35.468Z,32.67
2023-02-11T06:22:04.267Z,26.80
2023-02-11T06:24:58.447Z,26.27
2023-02-11T06:27:23.923Z,26.03
2023-02-11T06:29:53.043Z,28.43
2023-02-11T06:32:42.091Z,32.83
2023-02-11T06:35:12.229Z,27.57
2023-02-11T06:37:42.182Z,27.07
2023-02-11T06:40:12.065Z,30.47
2023-02-11T06:42:42.658Z,34.83
2023-02-11T06:45:13.561Z,39.40
2023-02-11T06:47:42.858Z,32.23
2023-02-11T06:50:15.094Z,22.77
2023-02-11T06:52:44.027Z,27.40
2023-02-11T06:55:13.028Z,21.97
2023-02-11T06:57:43.353Z,19.03
2023-02-11T07:00:13.676Z,20.30
2023-02-11T07:02:42.727Z,19.70
2023-02-11T07:05:12.332Z,19.63
2023-02-11T07:07:41.230Z,19.93
2023-02-11T07:10:10.662Z,18.03
2023-02-11T07:12:39.742Z,21.17
2023-02-11T07:15:10.611Z,21.20
2023-02-11T07:17:39.583Z,19.00
2023-02-11T07:20:09.328Z,21.00
2023-02-11T07:22:38.213Z,16.67
2023-02-11T07:25:07.669Z,21.10
2023-02-11T07:27:36.491Z,19.03
2023-02-11T07:30:07.322Z,16.57
2023-02-11T07:32:37.972Z,16.23
2023-02-11T07:35:07.588Z,17.10
2023-02-11T07:37:36.782Z,15.40
2023-02-11T07:40:05.966Z,12.10
2023-02-11T07:42:37.530Z,11.17
2023-02-11T07:45:07.063Z,17.50
2023-02-11T07:47:38.445Z,13.73
2023-02-11T07:50:13.073Z,11.07
2023-02-11T07:52:42.918Z,11.10
2023-02-11T07:55:11.777Z,13.07
2023-02-11T07:57:41.452Z,10.80
2023-02-11T08:00:11.597Z,11.10
2023-02-11T08:02:41.997Z,10.50
2023-02-11T08:05:11.318Z,11.80
2023-02-11T08:07:40.171Z,11.07
2023-02-11T08:10:09.673Z,11.67
2023-02-11T08:12:38.559Z,13.17
2023-02-11T08:15:07.810Z,13.60
2023-02-11T08:17:37.388Z,16.57
2023-02-11T08:20:08.661Z,12.10
2023-02-11T08:22:37.701Z,11.77
2023-02-11T08:25:07.502Z,14.73
2023-02-11T08:27:41.865Z,13.73
2023-02-11T08:30:11.985Z,13.57
2023-02-11T08:32:41.111Z,11.53
2023-02-11T08:35:12.949Z,11.93
2023-02-11T08:37:42.072Z,12.10
2023-02-11T08:40:11.906Z,12.27
2023-02-11T08:42:40.811Z,15.50
2023-02-11T08:45:11.138Z,12.57
2023-02-11T08:47:45.081Z,10.27
2023-02-11T08:50:15.608Z,9.20
2023-02-11T08:52:44.827Z,9.70
2023-02-11T08:55:13.695Z,13.87
2023-02-11T08:57:42.593Z,13.33
2023-02-11T09:00:12.757Z,11.23
2023-02-11T09:02:41.675Z,9.73
2023-02-11T09:05:10.736Z,8.03
2023-02-11T09:07:41.001Z,10.00
2023-02-11T09:10:10.838Z,9.10
2023-02-11T09:12:39.639Z,10.70
2023-02-11T09:15:11.571Z,13.93
2023-02-11T09:17:41.148Z,11.20
2023-02-11T09:20:11.026Z,12.67
2023-02-11T09:22:41.364Z,9.83
2023-02-11T09:25:10.566Z,17.87
2023-02-11T09:27:39.554Z,15.63
2023-02-11T09:30:09.256Z,35.77
2023-02-11T09:32:38.133Z,14.47
2023-02-11T09:35:07.684Z,14.37
2023-02-11T09:37:37.513Z,47.83
2023-02-11T09:40:08.974Z,26.13
2023-02-11T09:43:03.001Z,16.70
2023-02-11T09:45:35.770Z,44.70
2023-02-11T09:48:15.951Z,16.40
2023-02-11T09:50:56.682Z,37.70
2023-02-11T09:53:29.303Z,12.23
2023-02-11T09:56:12.466Z,14.33
2023-02-11T09:58:46.377Z,29.13
2023-02-11T10:01:31.889Z,44.27
2023-02-11T10:04:27.524Z,41.17
2023-02-11T10:07:12.168Z,16.87
2023-02-11T10:09:59.036Z,54.03
2023-02-11T10:12:53.499Z,21.77
2023-02-11T10:15:36.520Z,18.87
2023-02-11T10:18:24.448Z,20.83
2023-02-11T10:21:10.005Z,17.17
2023-02-11T10:23:42.781Z,15.47
2023-02-11T10:26:15.274Z,30.60
2023-02-11T10:28:48.765Z,17.70
2023-02-11T10:31:22.908Z,16.67
2023-02-11T10:33:58.049Z,44.07
2023-02-11T10:36:30.818Z,40.93
2023-02-11T10:39:01.664Z,16.00
2023-02-11T10:41:35.210Z,17.00
2023-02-11T10:44:09.220Z,24.13
2023-02-11T10:46:40.462Z,31.90
2023-02-11T10:49:40.033Z,17.80
2023-02-11T10:52:19.213Z,23.17
2023-02-11T10:55:03.432Z,10.57
2023-02-11T10:57:36.449Z,10.97
2023-02-11T11:00:24.455Z,11.17
2023-02-11T11:02:58.340Z,11.87
2023-02-11T11:05:33.060Z,13.07
2023-02-11T11:08:03.818Z,12.57
2023-02-11T11:10:43.736Z,16.30
2023-02-11T11:13:33.612Z,11.60
2023-02-11T11:16:19.299Z,15.90
2023-02-11T11:18:49.831Z,14.93
2023-02-11T11:21:22.827Z,13.33
2023-02-11T11:23:58.523Z,17.27
2023-02-11T11:26:29.723Z,21.80
2023-02-11T11:29:02.996Z,29.60
2023-02-11T11:31:36.896Z,13.33
2023-02-11T11:34:22.117Z,17.17
2023-02-11T11:36:52.057Z,22.17
2023-02-11T11:39:24.867Z,15.57
2023-02-11T11:41:56.749Z,11.83
2023-02-11T11:44:31.275Z,15.53
2023-02-11T11:47:25.767Z,16.67
2023-02-11T11:50:16.379Z,18.20
2023-02-11T11:52:50.625Z,20.37
2023-02-11T11:55:23.019Z,10.27
2023-02-11T11:57:52.518Z,17.73
2023-02-11T12:00:25.462Z,13.47
2023-02-11T12:03:24.392Z,13.13
2023-02-11T12:06:04.378Z,8.80
2023-02-11T12:08:43.640Z,9.93
2023-02-11T12:11:21.054Z,9.60
2023-02-11T12:14:02.933Z,9.90
2023-02-11T12:16:42.894Z,11.80
2023-02-11T12:19:39.496Z,9.97
2023-02-11T12:22:12.981Z,9.97
2023-02-11T12:24:57.575Z,10.00
2023-02-11T12:27:42.996Z,11.93
2023-02-11T12:30:39.279Z,12.30
2023-02-11T12:33:17.541Z,13.80
2023-02-11T12:35:57.743Z,9.73
2023-02-11T12:38:48.531Z,10.57
2023-02-11T12:42:07.996Z,10.03
2023-02-11T12:44:49.836Z,8.80
2023-02-11T12:47:30.132Z,9.70
2023-02-11T12:50:09.816Z,10.17
2023-02-11T12:52:56.431Z,9.77
2023-02-11T12:55:28.122Z,11.50
2023-02-11T12:58:00.435Z,11.23
2023-02-11T13:00:40.112Z,12.07
2023-02-11T13:03:15.223Z,13.50
2023-02-11T13:05:50.587Z,14.83
2023-02-11T13:08:27.334Z,15.13
2023-02-11T13:10:59.435Z,11.80
2023-02-11T13:13:31.084Z,11.30
2023-02-11T13:16:06.694Z,10.60
2023-02-11T13:18:49.661Z,12.30
2023-02-11T13:21:38.608Z,9.40
2023-02-11T13:24:20.757Z,13.10
2023-02-11T13:27:05.953Z,15.77
2023-02-11T13:29:52.176Z,15.47
2023-02-11T13:32:21.280Z,18.53
2023-02-11T13:35:00.903Z,16.60
2023-02-11T13:37:38.385Z,18.30
2023-02-11T13:40:24.444Z,13.03
2023-02-11T13:42:56.782Z,12.23
2023-02-11T13:45:32.072Z,15.20
2023-02-11T13:48:03.581Z,18.60
2023-02-11T13:50:39.210Z,15.93
2023-02-11T13:53:09.704Z,15.20
2023-02-11T13:55:42.062Z,15.70
2023-02-11T13:58:37.815Z,16.13
2023-02-11T14:01:07.976Z,15.83
2023-02-11T14:03:56.586Z,18.63
2023-02-11T14:06:45.846Z,17.67
2023-02-11T14:09:44.371Z,30.03
2023-02-11T14:12:43.562Z,20.00
2023-02-11T14:15:31.381Z,17.23
2023-02-11T14:18:00.304Z,33.53
2023-02-11T14:20:43.546Z,39.73
2023-02-11T14:23:25.012Z,41.53
2023-02-11T14:26:06.501Z,21.00
2023-02-11T14:28:37.701Z,15.27
2023-02-11T14:31:13.550Z,16.10
2023-02-11T14:34:05.552Z,21.47
2023-02-11T14:37:05.507Z,22.57
2023-02-11T14:39:53.262Z,22.37
2023-02-11T14:42:27.052Z,15.10
2023-02-11T14:45:04.653Z,16.17
2023-02-11T14:47:46.694Z,15.90
2023-02-11T14:50:20.668Z,14.47
2023-02-11T14:52:51.290Z,14.93
2023-02-11T14:55:31.632Z,16.03
2023-02-11T14:58:15.199Z,16.37
2023-02-11T15:00:55.808Z,20.00
2023-02-11T15:03:37.443Z,20.60
2023-02-11T15:06:09.353Z,26.07
2023-02-11T15:08:43.842Z,28.27
2023-02-11T15:11:34.979Z,23.23
2023-02-11T15:14:10.576Z,139.73
2023-02-11T15:16:45.731Z,153.47
2023-02-11T15:19:23.230Z,38.20
2023-02-11T15:21:53.337Z,55.60
2023-02-11T15:24:40.725Z,105.73
2023-02-11T15:27:14.830Z,54.13
2023-02-11T15:29:45.681Z,69.20
2023-02-11T15:32:18.756Z,42.00
2023-02-11T15:34:49.352Z,31.57
2023-02-11T15:37:22.543Z,26.60
2023-02-11T15:39:54.134Z,27.37
2023-02-11T15:42:26.385Z,27.53
2023-02-11T15:45:13.130Z,29.67
2023-02-11T15:47:50.214Z,29.30
2023-02-11T15:50:25.907Z,34.40
2023-02-11T15:53:24.915Z,32.80
2023-02-11T15:55:59.572Z,33.87
2023-02-11T15:58:28.999Z,34.63
2023-02-11T16:01:00.133Z,35.70
2023-02-11T16:03:33.127Z,36.13
2023-02-11T16:06:30.566Z,39.20
2023-02-11T16:09:02.162Z,40.27
2023-02-11T16:11:33.643Z,40.53
2023-02-11T16:14:05.884Z,44.37
2023-02-11T16:16:36.743Z,45.00
2023-02-11T16:19:07.057Z,39.00
2023-02-11T16:21:39.516Z,35.87
2023-02-11T16:24:17.508Z,33.27
2023-02-11T16:26:55.423Z,32.33
2023-02-11T16:29:27.740Z,33.13
2023-02-11T16:32:09.570Z,34.43
2023-02-11T16:34:46.450Z,31.70
2023-02-11T16:37:15.922Z,30.13
2023-02-11T16:39:45.121Z,32.30
2023-02-11T16:42:14.443Z,29.63
2023-02-11T16:44:43.348Z,29.87
2023-02-11T16:47:29.421Z,32.40
2023-02-11T16:50:02.179Z,31.53
2023-02-11T16:52:32.321Z,27.53
2023-02-11T16:55:01.551Z,28.20
2023-02-11T16:57:31.522Z,29.67
2023-02-11T17:00:01.263Z,28.17
2023-02-11T17:02:33.153Z,25.57
2023-02-11T17:05:05.829Z,27.97
2023-02-11T17:07:35.564Z,31.57
2023-02-11T17:10:04.491Z,35.80
2023-02-11T17:12:33.539Z,51.87
2023-02-11T17:15:02.489Z,45.80
2023-02-11T17:17:31.366Z,41.03
2023-02-11T17:20:03.132Z,43.33
2023-02-11T17:22:32.123Z,100.20
2023-02-11T17:25:01.125Z,125.40
2023-02-11T17:27:30.245Z,112.47
2023-02-11T17:30:18.520Z,107.30
2023-02-11T17:32:47.703Z,101.63
2023-02-11T17:35:18.667Z,91.43
2023-02-11T17:37:47.958Z,104.43
2023-02-11T17:40:17.259Z,91.90
2023-02-11T17:42:46.369Z,76.97
2023-02-11T17:45:16.960Z,41.90
2023-02-11T17:47:46.362Z,30.60
2023-02-11T17:50:15.202Z,22.10
2023-02-11T17:52:45.519Z,18.43
2023-02-11T17:55:14.587Z,17.13
2023-02-11T17:57:43.418Z,17.53
2023-02-11T18:00:13.329Z,18.83
2023-02-11T18:02:42.366Z,20.27
2023-02-11T18:05:17.092Z,19.27
2023-02-11T18:07:49.218Z,18.17
2023-02-11T18:10:18.181Z,20.67
2023-02-11T18:12:47.071Z,23.10
2023-02-11T18:15:18.785Z,24.27
2023-02-11T18:17:47.669Z,22.80
2023-02-11T18:20:16.665Z,23.97
2023-02-11T18:22:45.555Z,23.93
2023-02-11T18:25:17.011Z,25.53
2023-02-11T18:27:46.576Z,25.77
2023-02-11T18:30:20.880Z,28.77
2023-02-11T18:32:49.852Z,28.00
2023-02-11T18:35:20.608Z,26.60
2023-02-11T18:37:49.843Z,21.20
2023-02-11T18:40:20.679Z,19.90
2023-02-11T18:42:49.614Z,21.47
2023-02-11T18:45:18.655Z,33.87
2023-02-11T18:47:47.599Z,30.20
2023-02-11T18:50:16.703Z,20.33
2023-02-11T18:52:52.228Z,19.40
2023-02-11T18:55:29.102Z,18.13
2023-02-11T18:58:05.809Z,16.73
2023-02-11T19:00:36.797Z,16.40
2023-02-11T19:03:05.988Z,15.97
2023-02-11T19:05:42.369Z,17.57
2023-02-11T19:08:11.643Z,17.60
2023-02-11T19:10:43.720Z,17.67
2023-02-11T19:13:13.008Z,18.93
2023-02-11T19:15:43.012Z,20.73
2023-02-11T19:18:12.181Z,21.80
2023-02-11T19:20:41.495Z,26.43
2023-02-11T19:23:11.104Z,25.10
2023-02-11T19:25:47.054Z,25.03
2023-02-11T19:28:17.771Z,37.13
2023-02-11T19:30:46.847Z,27.33
2023-02-11T19:33:15.815Z,26.37
2023-02-11T19:35:44.694Z,25.53
2023-02-11T19:38:15.984Z,23.60
2023-02-11T19:40:45.023Z,21.40
2023-02-11T19:43:13.828Z,22.17
2023-02-11T19:45:44.173Z,22.20
2023-02-11T19:48:14.773Z,23.63
2023-02-11T19:50:44.301Z,26.00
2023-02-11T19:53:14.930Z,24.07
2023-02-11T19:55:44.318Z,23.87
2023-02-11T19:58:13.145Z,24.10
2023-02-11T20:00:44.416Z,23.53
2023-02-11T20:03:13.445Z,24.43
2023-02-11T20:05:47.408Z,24.43
2023-02-11T20:08:17.884Z,23.90
2023-02-11T20:10:54.779Z,23.40
2023-02-11T20:13:23.831Z,23.53
2023-02-11T20:15:54.750Z,24.10
2023-02-11T20:18:24.066Z,24.07
2023-02-11T20:20:53.330Z,23.70
2023-02-11T20:23:22.150Z,23.77
2023-02-11T20:25:51.190Z,23.03
2023-02-11T20:28:20.572Z,22.00
2023-02-11T20:30:58.602Z,22.17
2023-02-11T20:33:31.617Z,22.87
2023-02-11T20:36:06.070Z,23.17
2023-02-11T20:38:35.303Z,24.63
2023-02-11T20:41:05.791Z,26.87
2023-02-11T20:43:37.648Z,28.27
2023-02-11T20:46:09.704Z,30.77
2023-02-11T20:48:39.260Z,30.33
2023-02-11T20:51:10.453Z,31.77
2023-02-11T20:53:41.086Z,32.17
2023-02-11T20:56:12.449Z,36.10
2023-02-11T20:58:42.257Z,34.33
2023-02-11T21:01:16.886Z,35.40
2023-02-11T21:03:46.778Z,34.85
2023-02-11T21:06:15.672Z,35.03
2023-02-11T21:08:45.036Z,33.60
2023-02-11T21:11:14.347Z,32.40
2023-02-11T21:13:44.220Z,31.10
2023-02-11T21:16:17.623Z,32.00
2023-02-11T21:18:47.565Z,31.40
2023-02-11T21:21:16.658Z,34.70
2023-02-11T21:23:45.903Z,39.33
2023-02-11T21:26:15.378Z,41.93
2023-02-11T21:28:44.503Z,37.75
2023-02-11T21:31:21.530Z,38.67
2023-02-11T21:33:51.227Z,34.30
2023-02-11T21:36:20.579Z,33.25
2023-02-11T21:38:50.118Z,34.03
2023-02-11T21:41:31.843Z,33.75
2023-02-11T21:44:06.605Z,33.88
2023-02-11T21:46:37.776Z,37.25
2023-02-11T21:49:06.662Z,39.40
2023-02-11T21:51:35.971Z,42.13
2023-02-11T21:54:04.940Z,43.50
2023-02-11T21:56:35.704Z,46.70
2023-02-11T21:59:04.951Z,48.38
2023-02-11T22:01:37.102Z,55.42
2023-02-11T22:04:07.611Z,51.10
2023-02-11T22:06:36.715Z,49.55
2023-02-11T22:09:07.673Z,48.70
2023-02-11T22:11:37.140Z,48.40
2023-02-11T22:14:06.151Z,44.42
2023-02-11T22:16:35.118Z,42.15
2023-02-11T22:19:04.211Z,41.83
2023-02-11T22:21:34.501Z,41.30
2023-02-11T22:24:03.399Z,42.58
2023-02-11T22:26:32.482Z,44.05
2023-02-11T22:29:01.505Z,41.03
2023-02-11T22:31:33.741Z,42.33
2023-02-11T22:34:03.572Z,41.67
2023-02-11T22:36:35.600Z,43.25
2023-02-11T22:39:06.900Z,43.28
2023-02-11T22:41:38.449Z,45.15
2023-02-11T22:44:07.711Z,43.50
2023-02-11T22:46:36.840Z,43.03
2023-02-11T22:49:07.387Z,42.88
2023-02-11T22:51:37.863Z,44.15
2023-02-11T22:54:09.167Z,40.97
2023-02-11T22:56:38.400Z,40.70
2023-02-11T22:59:09.049Z,37.97
2023-02-11T23:01:38.254Z,36.72
2023-02-11T23:04:09.207Z,35.53
2023-02-11T23:06:39.734Z,35.53
2023-02-11T23:09:09.952Z,34.92
2023-02-11T23:11:38.903Z,34.42
2023-02-11T23:14:08.727Z,37.50
2023-02-11T23:16:37.896Z,35.22
2023-02-11T23:19:19.152Z,34.05
2023-02-11T23:21:52.793Z,32.30
2023-02-11T23:24:22.336Z,31.08
2023-02-11T23:26:52.224Z,32.40
2023-02-11T23:29:21.204Z,33.63
2023-02-11T23:31:50.192Z,34.13
2023-02-11T23:34:24.134Z,34.78
2023-02-11T23:36:54.810Z,35.20
2023-02-11T23:39:23.898Z,34.40
2023-02-11T23:41:59.005Z,36.03
2023-02-11T23:44:28.573Z,36.38
2023-02-11T23:46:57.596Z,39.67
2023-02-11T23:49:26.541Z,39.05
2023-02-11T23:52:00.485Z,38.53
2023-02-11T23:54:39.356Z,37.53
2023-02-11T23:57:08.706Z,37.20
2023-02-11T23:59:42.965Z,38.17
